Terminal Aerodrome Forecast
Issued by NWS Jackson, MS

Home | Current Version | Previous Version | Text Only | Print | Product List | Glossary On
Versions: 1 2 3 4 5 6 7 8 9 10 11 12 13 14 15 16 17 18 19 20 21
000
FTUS44 KMEG 221310 AAA
TAFTUP
TAF AMD
KTUP 221310Z 2213/2312 14003KT 6SM -RA BR SCT040 OVC070
     FM221400 17008KT 3SM RA BR VCTS BKN015CB BKN080
     FM221800 21007KT P6SM SCT015 OVC035
     FM230100 18004KT P6SM BKN015 OVC025=

USA.gov is the U.S. government's official web portal to all federal, state and local government web resources and services.